createdAt,value
2023-12-23T00:00:56.385Z,8.80
2023-12-23T00:03:23.303Z,8.80
2023-12-23T00:05:50.204Z,8.70
2023-12-23T00:08:17.026Z,8.70
2023-12-23T00:10:43.894Z,8.70
2023-12-23T00:13:10.801Z,8.70
2023-12-23T00:15:37.513Z,8.70
2023-12-23T00:18:05.128Z,8.70
2023-12-23T00:20:32.203Z,8.70
2023-12-23T00:22:59.553Z,8.70
2023-12-23T00:25:26.627Z,8.70
2023-12-23T00:27:53.553Z,8.80
2023-12-23T00:30:20.529Z,8.80
2023-12-23T00:32:47.756Z,8.70
2023-12-23T00:35:14.743Z,8.70
2023-12-23T00:37:42.483Z,8.60
2023-12-23T00:40:09.653Z,8.60
2023-12-23T00:42:37.576Z,8.60
2023-12-23T00:45:06.716Z,8.60
2023-12-23T00:47:37.415Z,8.60
2023-12-23T00:50:06.105Z,8.60
2023-12-23T00:52:33.062Z,8.60
2023-12-23T00:55:01.032Z,8.60
2023-12-23T00:57:28.914Z,8.60
2023-12-23T00:59:59.077Z,8.60
2023-12-23T01:02:25.967Z,8.60
2023-12-23T01:04:55.220Z,8.70
2023-12-23T01:07:22.664Z,8.70
2023-12-23T01:09:49.488Z,8.70
2023-12-23T01:12:16.235Z,8.70
2023-12-23T01:14:43.145Z,8.70
2023-12-23T01:17:10.220Z,8.80
2023-12-23T01:19:40.983Z,8.80
2023-12-23T01:22:10.181Z,8.90
2023-12-23T01:24:36.987Z,8.90
2023-12-23T01:27:04.072Z,8.90
2023-12-23T01:29:30.896Z,8.90
2023-12-23T01:31:57.739Z,8.90
2023-12-23T01:34:24.494Z,8.90
2023-12-23T01:36:51.748Z,9.00
2023-12-23T01:39:19.543Z,9.00
2023-12-23T01:41:46.297Z,9.00
2023-12-23T01:44:13.217Z,9.00
2023-12-23T01:46:40.301Z,9.00
2023-12-23T01:49:08.349Z,9.10
2023-12-23T01:51:35.467Z,9.10
2023-12-23T01:54:06.099Z,9.00
2023-12-23T01:56:33.785Z,9.00
2023-12-23T01:59:03.634Z,9.00
2023-12-23T02:01:32.549Z,9.00
2023-12-23T02:04:00.611Z,9.00
2023-12-23T02:06:27.627Z,9.00
2023-12-23T02:08:54.859Z,9.00
2023-12-23T02:11:36.762Z,9.10
2023-12-23T02:14:23.075Z,9.10
2023-12-23T02:16:51.631Z,9.00
2023-12-23T02:19:18.641Z,9.00
2023-12-23T02:21:45.617Z,9.00
2023-12-23T02:24:13.241Z,9.00
2023-12-23T02:26:42.145Z,9.00
2023-12-23T02:29:09.865Z,9.00
2023-12-23T02:31:37.271Z,9.00
2023-12-23T02:34:04.340Z,9.00
2023-12-23T02:36:32.395Z,9.00
2023-12-23T02:38:59.126Z,9.00
2023-12-23T02:41:26.156Z,9.00
2023-12-23T02:43:53.120Z,9.00
2023-12-23T02:46:20.063Z,9.00
2023-12-23T02:48:46.880Z,9.00
2023-12-23T02:51:13.780Z,8.90
2023-12-23T02:53:40.540Z,9.00
2023-12-23T02:56:08.968Z,9.00
2023-12-23T02:58:36.482Z,9.00
2023-12-23T03:01:08.686Z,9.00
2023-12-23T03:03:36.750Z,9.00
2023-12-23T03:06:04.183Z,9.10
2023-12-23T03:08:31.009Z,9.10
2023-12-23T03:10:58.862Z,9.10
2023-12-23T03:13:25.730Z,9.10
2023-12-23T03:15:52.449Z,9.10
2023-12-23T03:18:19.353Z,9.10
2023-12-23T03:20:46.120Z,9.10
2023-12-23T03:23:13.190Z,9.10
2023-12-23T03:25:39.945Z,9.20
2023-12-23T03:28:07.136Z,9.10
2023-12-23T03:30:35.602Z,9.10
2023-12-23T03:33:02.446Z,9.20
2023-12-23T03:35:29.318Z,9.10
2023-12-23T03:37:56.211Z,9.10
2023-12-23T03:40:22.950Z,9.10
2023-12-23T03:42:50.228Z,9.10
2023-12-23T03:45:18.170Z,9.10
2023-12-23T03:47:44.999Z,9.10
2023-12-23T03:50:11.859Z,9.10
2023-12-23T03:52:38.717Z,9.10
2023-12-23T03:55:05.740Z,9.10
2023-12-23T03:57:32.603Z,9.10
2023-12-23T03:59:59.578Z,9.00
2023-12-23T04:02:26.436Z,9.00
2023-12-23T04:04:53.329Z,9.00
2023-12-23T04:07:20.126Z,9.10
2023-12-23T04:09:47.089Z,9.10
2023-12-23T04:12:13.992Z,9.00
2023-12-23T04:14:43.565Z,9.00
2023-12-23T04:17:10.374Z,9.00
2023-12-23T04:19:37.129Z,9.00
2023-12-23T04:22:04.549Z,9.00
2023-12-23T04:24:31.415Z,9.00
2023-12-23T04:26:58.178Z,9.00
2023-12-23T04:29:25.408Z,9.00
2023-12-23T04:31:52.327Z,9.00
2023-12-23T04:34:19.149Z,9.00
2023-12-23T04:36:46.454Z,8.90
2023-12-23T04:39:13.719Z,8.90
2023-12-23T04:41:47.822Z,8.90
2023-12-23T04:44:18.037Z,8.90
2023-12-23T04:46:48.824Z,9.00
2023-12-23T04:49:15.688Z,8.90
2023-12-23T04:51:46.152Z,9.00
2023-12-23T04:54:14.110Z,8.90
2023-12-23T04:56:41.430Z,9.00
2023-12-23T04:59:09.747Z,8.90
2023-12-23T05:01:36.899Z,8.90
2023-12-23T05:04:03.666Z,9.00
2023-12-23T05:06:30.443Z,8.90
2023-12-23T05:08:57.518Z,9.00
2023-12-23T05:11:25.211Z,9.00
2023-12-23T05:13:52.945Z,9.00
2023-12-23T05:16:19.738Z,9.00
2023-12-23T05:18:46.508Z,9.00
2023-12-23T05:21:13.337Z,9.00
2023-12-23T05:23:41.219Z,9.00
2023-12-23T05:26:08.122Z,9.00
2023-12-23T05:28:34.998Z,9.00
2023-12-23T05:31:01.797Z,9.00
2023-12-23T05:33:28.680Z,9.00
2023-12-23T05:35:55.953Z,9.00
2023-12-23T05:38:22.812Z,9.00
2023-12-23T05:40:49.628Z,8.90
2023-12-23T05:43:16.458Z,8.90
2023-12-23T05:45:43.333Z,8.90
2023-12-23T05:48:10.146Z,8.90
2023-12-23T05:50:37.621Z,8.90
2023-12-23T05:53:05.068Z,8.90
2023-12-23T05:55:32.429Z,8.90
2023-12-23T05:57:59.217Z,8.90
2023-12-23T06:00:25.969Z,8.90
2023-12-23T06:02:53.280Z,8.80
2023-12-23T06:05:20.371Z,8.80
2023-12-23T06:07:47.453Z,8.80
2023-12-23T06:10:14.225Z,8.80
2023-12-23T06:12:41.296Z,8.70
2023-12-23T06:15:08.538Z,8.80
2023-12-23T06:17:35.407Z,8.80
2023-12-23T06:20:02.328Z,8.70
2023-12-23T06:22:29.392Z,8.70
2023-12-23T06:24:56.124Z,8.70
2023-12-23T06:27:23.147Z,8.70
2023-12-23T06:29:49.866Z,8.70
2023-12-23T06:32:16.746Z,8.70
2023-12-23T06:34:43.712Z,8.70
2023-12-23T06:37:10.451Z,8.70
2023-12-23T06:39:37.202Z,8.70
2023-12-23T06:42:04.122Z,8.70
2023-12-23T06:44:30.890Z,8.70
2023-12-23T06:46:57.726Z,8.70
2023-12-23T06:49:25.507Z,8.70
2023-12-23T06:51:52.553Z,8.70
2023-12-23T06:54:19.254Z,8.70
2023-12-23T06:56:46.046Z,8.70
2023-12-23T06:59:14.272Z,8.70
2023-12-23T07:01:41.132Z,8.70
2023-12-23T07:04:09.209Z,8.60
2023-12-23T07:06:37.031Z,8.60
2023-12-23T07:09:06.312Z,8.60
2023-12-23T07:11:35.010Z,8.60
2023-12-23T07:14:01.930Z,8.60
2023-12-23T07:16:28.822Z,8.60
2023-12-23T07:18:56.037Z,8.60
2023-12-23T07:21:23.122Z,8.60
2023-12-23T07:23:50.074Z,8.60
2023-12-23T07:26:16.896Z,8.60
2023-12-23T07:28:43.866Z,8.50
2023-12-23T07:31:10.615Z,8.50
2023-12-23T07:33:37.478Z,8.50
2023-12-23T07:36:04.612Z,8.50
2023-12-23T07:38:31.443Z,8.50
2023-12-23T07:40:58.232Z,8.50
2023-12-23T07:43:25.057Z,8.50
2023-12-23T07:45:51.892Z,8.50
2023-12-23T07:48:18.697Z,8.50
2023-12-23T07:50:45.836Z,8.60
2023-12-23T07:53:12.663Z,8.50
2023-12-23T07:55:40.901Z,8.60
2023-12-23T07:58:07.770Z,8.50
2023-12-23T08:00:34.695Z,8.50
2023-12-23T08:03:01.532Z,8.50
2023-12-23T08:05:32.667Z,8.50
2023-12-23T08:07:59.776Z,8.50
2023-12-23T08:10:26.581Z,8.50
2023-12-23T08:12:53.810Z,8.40
2023-12-23T08:15:21.047Z,8.40
2023-12-23T08:17:48.240Z,8.40
2023-12-23T08:20:15.367Z,8.30
2023-12-23T08:22:42.800Z,8.30
2023-12-23T08:25:10.194Z,8.30
2023-12-23T08:27:38.856Z,8.40
2023-12-23T08:30:07.491Z,8.30
2023-12-23T08:32:34.942Z,8.30
2023-12-23T08:35:02.173Z,8.30
2023-12-23T08:37:29.162Z,8.30
2023-12-23T08:39:56.395Z,8.30
2023-12-23T08:42:23.832Z,8.40
2023-12-23T08:44:50.858Z,8.30
2023-12-23T08:47:18.393Z,8.30
2023-12-23T08:49:45.293Z,8.40
2023-12-23T08:52:12.104Z,8.40
2023-12-23T08:54:42.467Z,8.30
2023-12-23T08:57:09.866Z,8.30
2023-12-23T08:59:36.632Z,8.20
2023-12-23T09:02:05.051Z,8.20
2023-12-23T09:04:31.995Z,8.20
2023-12-23T09:06:59.314Z,8.20
2023-12-23T09:09:26.330Z,8.20
2023-12-23T09:11:54.097Z,8.20
2023-12-23T09:14:21.068Z,8.10
2023-12-23T09:16:47.889Z,8.10
2023-12-23T09:19:14.809Z,8.20
2023-12-23T09:21:41.677Z,8.20
2023-12-23T09:24:09.214Z,8.30
2023-12-23T09:26:36.794Z,8.30
2023-12-23T09:29:03.866Z,8.30
2023-12-23T09:31:32.009Z,8.30
2023-12-23T09:33:59.872Z,8.30
2023-12-23T09:36:26.763Z,8.30
2023-12-23T09:38:53.740Z,8.30
2023-12-23T09:41:21.112Z,8.30
2023-12-23T09:43:50.664Z,8.30
2023-12-23T09:46:19.807Z,8.20
2023-12-23T09:48:47.067Z,8.20
2023-12-23T09:51:14.115Z,8.20
2023-12-23T09:53:46.383Z,8.20
2023-12-23T09:56:13.937Z,8.30
2023-12-23T09:58:44.453Z,8.30
2023-12-23T10:01:11.508Z,8.30
2023-12-23T10:03:38.318Z,8.40
2023-12-23T10:06:05.418Z,8.30
2023-12-23T10:08:33.179Z,8.30
2023-12-23T10:10:59.933Z,8.40
2023-12-23T10:13:26.951Z,8.40
2023-12-23T10:15:53.913Z,8.50
2023-12-23T10:18:20.768Z,8.50
2023-12-23T10:20:48.104Z,8.60
2023-12-23T10:23:14.907Z,8.60
2023-12-23T10:25:41.812Z,8.60
2023-12-23T10:28:10.275Z,8.60
2023-12-23T10:30:40.369Z,8.60
2023-12-23T10:33:09.394Z,8.60
2023-12-23T10:35:45.778Z,8.60
2023-12-23T10:38:18.056Z,8.60
2023-12-23T10:41:11.337Z,8.60
2023-12-23T10:43:39.687Z,8.50
2023-12-23T10:46:08.849Z,8.50
2023-12-23T10:48:37.772Z,8.50
2023-12-23T10:51:05.545Z,8.50
2023-12-23T10:53:32.997Z,8.40
2023-12-23T10:55:59.896Z,8.40
2023-12-23T10:58:28.479Z,8.40
2023-12-23T11:00:56.993Z,8.40
2023-12-23T11:03:26.223Z,8.30
2023-12-23T11:05:56.789Z,8.20
2023-12-23T11:08:26.353Z,8.20
2023-12-23T11:10:53.462Z,8.20
2023-12-23T11:13:21.774Z,8.20
2023-12-23T11:15:48.942Z,8.20
2023-12-23T11:18:16.204Z,8.20
2023-12-23T11:20:44.556Z,8.20
2023-12-23T11:23:37.755Z,8.20
2023-12-23T11:26:05.314Z,8.20
2023-12-23T11:28:35.622Z,8.10
2023-12-23T11:31:04.676Z,8.10
2023-12-23T11:33:34.179Z,8.10
2023-12-23T11:36:02.709Z,8.20
2023-12-23T11:38:53.043Z,8.10
2023-12-23T11:41:21.616Z,8.10
2023-12-23T11:43:50.939Z,8.10
2023-12-23T11:46:25.162Z,8.10
2023-12-23T11:48:52.001Z,8.20
2023-12-23T11:51:18.849Z,8.20
2023-12-23T11:53:46.617Z,8.20
2023-12-23T11:56:14.787Z,8.30
2023-12-23T11:58:43.138Z,8.30
2023-12-23T12:01:09.966Z,8.20
2023-12-23T12:03:36.782Z,8.20
2023-12-23T12:06:03.960Z,8.20
2023-12-23T12:08:30.920Z,8.20
2023-12-23T12:11:02.161Z,8.10
2023-12-23T12:13:37.510Z,8.10
2023-12-23T12:16:05.543Z,8.20
2023-12-23T12:18:32.413Z,8.20
2023-12-23T12:20:59.560Z,8.20
2023-12-23T12:23:26.510Z,8.20
2023-12-23T12:25:58.218Z,8.10
2023-12-23T12:28:25.866Z,8.10
2023-12-23T12:30:52.928Z,8.20
2023-12-23T12:33:19.857Z,8.20
2023-12-23T12:35:47.645Z,8.20
2023-12-23T12:38:20.317Z,8.10
2023-12-23T12:40:51.243Z,8.10
2023-12-23T12:43:18.246Z,8.20
2023-12-23T12:45:49.705Z,8.10
2023-12-23T12:48:16.960Z,8.20
2023-12-23T12:50:45.221Z,8.20
2023-12-23T12:53:16.672Z,8.20
2023-12-23T12:55:43.549Z,8.20
2023-12-23T12:58:10.397Z,8.20
2023-12-23T13:00:37.883Z,8.20
2023-12-23T13:03:05.504Z,8.20
2023-12-23T13:05:32.308Z,8.30
2023-12-23T13:07:59.113Z,8.40
2023-12-23T13:10:25.846Z,8.40
2023-12-23T13:12:53.153Z,8.50
2023-12-23T13:15:20.286Z,8.50
2023-12-23T13:17:47.154Z,8.60
2023-12-23T13:20:14.528Z,8.50
2023-12-23T13:22:42.212Z,8.50
2023-12-23T13:25:10.569Z,8.50
2023-12-23T13:27:37.726Z,8.40
2023-12-23T13:30:05.220Z,8.40
2023-12-23T13:32:34.151Z,8.30
2023-12-23T13:35:04.893Z,8.40
2023-12-23T13:37:32.337Z,8.40
2023-12-23T13:40:39.266Z,8.40
2023-12-23T13:43:06.111Z,8.50
2023-12-23T13:45:32.847Z,8.50
2023-12-23T13:47:59.853Z,8.50
2023-12-23T13:50:26.798Z,8.50
2023-12-23T13:52:54.442Z,8.50
2023-12-23T13:55:21.666Z,8.50
2023-12-23T13:57:48.407Z,8.50
2023-12-23T14:00:15.629Z,8.50
2023-12-23T14:02:42.432Z,8.40
2023-12-23T14:05:09.470Z,8.40
2023-12-23T14:07:36.286Z,8.40
2023-12-23T14:10:03.063Z,8.40
2023-12-23T14:12:30.293Z,8.30
2023-12-23T14:14:57.080Z,8.40
2023-12-23T14:17:23.985Z,8.40
2023-12-23T14:19:50.865Z,8.40
2023-12-23T14:22:19.085Z,8.40
2023-12-23T14:24:46.415Z,8.40
2023-12-23T14:27:13.343Z,8.40
2023-12-23T14:29:40.397Z,8.40
2023-12-23T14:32:07.369Z,8.40
2023-12-23T14:34:36.614Z,8.40
2023-12-23T14:37:03.434Z,8.40
2023-12-23T14:39:30.484Z,8.40
2023-12-23T14:41:57.662Z,8.40
2023-12-23T14:44:24.462Z,8.30
2023-12-23T14:46:51.222Z,8.30
2023-12-23T14:49:18.078Z,8.30
2023-12-23T14:51:45.122Z,8.30
2023-12-23T14:54:11.819Z,8.30
2023-12-23T14:56:38.639Z,8.30
2023-12-23T14:59:05.558Z,8.30
2023-12-23T15:01:35.872Z,8.20
2023-12-23T15:04:04.050Z,8.20
2023-12-23T15:06:31.250Z,8.20
2023-12-23T15:08:58.030Z,8.10
2023-12-23T15:11:24.819Z,8.20
2023-12-23T15:13:51.662Z,8.20
2023-12-23T15:16:18.782Z,8.20
2023-12-23T15:18:45.694Z,8.20
2023-12-23T15:21:12.568Z,8.20
2023-12-23T15:23:39.356Z,8.20
2023-12-23T15:26:06.273Z,8.20
2023-12-23T15:28:33.296Z,8.20
2023-12-23T15:31:00.163Z,8.20
2023-12-23T15:33:27.043Z,8.20
2023-12-23T15:35:54.383Z,8.20
2023-12-23T15:38:21.196Z,8.20
2023-12-23T15:40:48.325Z,8.20
2023-12-23T15:43:15.999Z,8.20
2023-12-23T15:45:42.934Z,8.20
2023-12-23T15:48:09.879Z,8.30
2023-12-23T15:50:36.789Z,8.30
2023-12-23T15:53:04.917Z,8.30
2023-12-23T15:55:34.617Z,8.30
2023-12-23T15:58:05.735Z,8.30
2023-12-23T16:00:33.149Z,8.30
2023-12-23T16:03:02.363Z,8.30
2023-12-23T16:05:29.787Z,8.30
2023-12-23T16:07:56.676Z,8.30
2023-12-23T16:10:23.849Z,8.30
2023-12-23T16:12:50.803Z,8.30
2023-12-23T16:15:18.217Z,8.30
2023-12-23T16:17:45.266Z,8.30
2023-12-23T16:20:12.219Z,8.30
2023-12-23T16:22:39.067Z,8.30
2023-12-23T16:25:06.502Z,8.30
2023-12-23T16:27:35.681Z,8.30
2023-12-23T16:30:02.691Z,8.20
2023-12-23T16:32:32.044Z,8.20
2023-12-23T16:34:59.607Z,8.20
2023-12-23T16:37:26.361Z,8.20
2023-12-23T16:39:56.148Z,8.20
2023-12-23T16:42:22.966Z,8.20
2023-12-23T16:44:49.796Z,8.20
2023-12-23T16:47:16.817Z,8.30
2023-12-23T16:49:46.284Z,8.30
2023-12-23T16:52:13.633Z,8.30
2023-12-23T16:54:42.907Z,8.30
2023-12-23T16:57:09.700Z,8.30
2023-12-23T16:59:36.482Z,8.20
2023-12-23T17:02:06.657Z,8.20
2023-12-23T17:04:34.178Z,8.20
2023-12-23T17:07:16.185Z,8.20
2023-12-23T17:09:45.505Z,8.20
2023-12-23T17:12:12.545Z,8.20
2023-12-23T17:14:39.329Z,8.20
2023-12-23T17:17:06.231Z,8.30
2023-12-23T17:19:34.705Z,8.30
2023-12-23T17:22:03.552Z,8.40
2023-12-23T17:24:30.770Z,8.40
2023-12-23T17:26:58.039Z,8.40
2023-12-23T17:29:24.966Z,8.40
2023-12-23T17:31:51.786Z,8.40
2023-12-23T17:34:21.021Z,8.50
2023-12-23T17:36:47.875Z,8.50
2023-12-23T17:39:21.941Z,8.50
2023-12-23T17:41:50.345Z,8.40
2023-12-23T17:44:25.277Z,8.40
2023-12-23T17:46:56.627Z,8.40
2023-12-23T17:49:26.127Z,8.40
2023-12-23T17:51:59.663Z,8.40
2023-12-23T17:54:27.859Z,8.40
2023-12-23T17:56:54.830Z,8.50
2023-12-23T17:59:24.372Z,8.50
2023-12-23T18:01:51.350Z,8.50
2023-12-23T18:04:18.164Z,8.50
2023-12-23T18:06:44.959Z,8.60
2023-12-23T18:09:13.492Z,8.60
2023-12-23T18:11:40.543Z,8.60
2023-12-23T18:14:07.344Z,8.60
2023-12-23T18:16:34.173Z,8.50
2023-12-23T18:19:01.613Z,8.50
2023-12-23T18:21:31.537Z,8.40
2023-12-23T18:23:58.470Z,8.40
2023-12-23T18:26:26.443Z,8.40
2023-12-23T18:28:53.850Z,8.50
2023-12-23T18:31:20.855Z,8.50
2023-12-23T18:33:47.806Z,8.50
2023-12-23T18:36:14.888Z,8.50
2023-12-23T18:38:41.621Z,8.50
2023-12-23T18:41:08.348Z,8.50
2023-12-23T18:43:36.206Z,8.50
2023-12-23T18:46:03.634Z,8.50
2023-12-23T18:48:30.525Z,8.50
2023-12-23T18:50:57.346Z,8.60
2023-12-23T18:53:24.135Z,8.60
2023-12-23T18:55:50.871Z,8.60
2023-12-23T18:58:17.841Z,8.60
2023-12-23T19:00:44.738Z,8.60
2023-12-23T19:03:13.597Z,8.70
2023-12-23T19:05:40.526Z,8.70
2023-12-23T19:08:08.238Z,8.70
2023-12-23T19:10:35.515Z,8.70
2023-12-23T19:13:02.381Z,8.70
2023-12-23T19:15:29.105Z,8.70
2023-12-23T19:17:56.155Z,8.70
2023-12-23T19:20:23.335Z,8.80
2023-12-23T19:22:50.514Z,8.80
2023-12-23T19:25:17.611Z,8.80
2023-12-23T19:27:44.353Z,8.80
2023-12-23T19:30:11.863Z,8.80
2023-12-23T19:32:41.645Z,8.80
2023-12-23T19:35:09.043Z,8.80
2023-12-23T19:37:36.867Z,8.80
2023-12-23T19:40:09.741Z,8.80
2023-12-23T19:42:37.982Z,8.80
2023-12-23T19:45:05.497Z,8.90
2023-12-23T19:47:33.637Z,8.80
2023-12-23T19:50:00.617Z,8.80
2023-12-23T19:52:27.810Z,8.80
2023-12-23T19:54:54.875Z,8.90
2023-12-23T19:57:21.720Z,8.90
2023-12-23T19:59:48.661Z,8.90
2023-12-23T20:02:15.683Z,8.90
2023-12-23T20:04:42.514Z,8.90
2023-12-23T20:07:11.512Z,9.00
2023-12-23T20:09:38.684Z,9.00
2023-12-23T20:12:07.927Z,9.00
2023-12-23T20:14:35.904Z,9.00
2023-12-23T20:17:03.149Z,9.00
2023-12-23T20:19:29.966Z,9.00
2023-12-23T20:21:56.905Z,9.00
2023-12-23T20:24:23.679Z,9.00
2023-12-23T20:26:52.092Z,9.00
2023-12-23T20:29:18.999Z,9.00
2023-12-23T20:31:45.997Z,9.00
2023-12-23T20:34:13.673Z,9.00
2023-12-23T20:36:42.458Z,9.00
2023-12-23T20:39:09.472Z,9.00
2023-12-23T20:41:38.949Z,9.00
2023-12-23T20:44:08.566Z,9.00
2023-12-23T20:46:35.445Z,9.00
2023-12-23T20:49:02.807Z,9.00
2023-12-23T20:51:31.078Z,9.00
2023-12-23T20:53:57.898Z,9.00
2023-12-23T20:56:30.297Z,9.00
2023-12-23T20:58:57.284Z,9.00
2023-12-23T21:01:24.413Z,9.00
2023-12-23T21:03:52.681Z,9.00
2023-12-23T21:06:19.885Z,9.10
2023-12-23T21:08:49.194Z,9.10
2023-12-23T21:11:19.675Z,9.10
2023-12-23T21:13:47.271Z,9.10
2023-12-23T21:16:14.332Z,9.10
2023-12-23T21:18:45.485Z,9.20
2023-12-23T21:21:12.995Z,9.20
2023-12-23T21:23:39.908Z,9.10
2023-12-23T21:26:14.809Z,9.10
2023-12-23T21:28:41.607Z,9.10
2023-12-23T21:31:09.199Z,9.10
2023-12-23T21:33:36.148Z,9.00
2023-12-23T21:36:03.130Z,9.00
2023-12-23T21:38:29.992Z,9.00
2023-12-23T21:40:56.793Z,9.00
2023-12-23T21:43:24.331Z,9.00
2023-12-23T21:45:51.130Z,9.00
2023-12-23T21:48:18.280Z,9.00
2023-12-23T21:50:45.216Z,9.00
2023-12-23T21:53:13.924Z,9.00
2023-12-23T21:55:41.302Z,9.00
2023-12-23T21:58:13.306Z,9.00
2023-12-23T22:00:41.005Z,9.00
2023-12-23T22:03:08.913Z,9.00
2023-12-23T22:05:35.946Z,9.00
2023-12-23T22:08:03.945Z,9.10
2023-12-23T22:10:33.562Z,9.10
2023-12-23T22:13:00.328Z,9.10
2023-12-23T22:15:27.149Z,9.10
2023-12-23T22:17:54.206Z,9.10
2023-12-23T22:20:22.505Z,9.10
2023-12-23T22:22:49.667Z,9.20
2023-12-23T22:25:18.948Z,9.20
2023-12-23T22:27:45.901Z,9.20
2023-12-23T22:30:13.071Z,9.10
2023-12-23T22:32:40.049Z,9.20
2023-12-23T22:35:07.126Z,9.10
2023-12-23T22:37:33.891Z,9.20
2023-12-23T22:40:01.286Z,9.10
2023-12-23T22:42:28.427Z,9.20
2023-12-23T22:44:55.435Z,9.10
2023-12-23T22:47:22.296Z,9.10
2023-12-23T22:49:50.488Z,9.10
2023-12-23T22:52:18.313Z,9.10
2023-12-23T22:54:45.159Z,9.10
2023-12-23T22:57:12.011Z,9.00
2023-12-23T22:59:38.937Z,9.10
2023-12-23T23:02:05.985Z,9.00
2023-12-23T23:04:33.048Z,9.00
2023-12-23T23:07:00.168Z,9.00
2023-12-23T23:09:30.113Z,8.90
2023-12-23T23:11:58.231Z,8.90
2023-12-23T23:14:25.414Z,8.90
2023-12-23T23:16:52.424Z,8.90
2023-12-23T23:19:19.709Z,8.90
2023-12-23T23:21:46.739Z,8.90
2023-12-23T23:24:13.513Z,8.90
2023-12-23T23:26:40.241Z,8.90
2023-12-23T23:29:07.035Z,8.90
2023-12-23T23:31:33.994Z,8.90
2023-12-23T23:34:00.785Z,9.00
2023-12-23T23:36:27.622Z,9.00
2023-12-23T23:38:54.539Z,8.90
2023-12-23T23:41:21.930Z,9.00
2023-12-23T23:43:48.895Z,9.00
2023-12-23T23:46:16.796Z,9.00
2023-12-23T23:48:44.414Z,9.00
2023-12-23T23:51:19.102Z,9.00
2023-12-23T23:53:46.023Z,9.00
2023-12-23T23:56:17.280Z,9.10
2023-12-23T23:58:46.757Z,9.10
